Strona główna
METAR-TAF:

METAR-TAF

Lotnisko :

Platforma wiertnicza

Awg-1, Holandia

Szerokość geograficzna: 53-29-30N, Długość geograficzna: 5-56-30E, wysokość: 33 m

Aktualna obserwacja pogody

Raport powstał 28 minut temu, godzina 14:55 UTC
Wiatr 6 kt z kierunków zmiennych
Temperatura 19°C
Wilgotność 78%
Ciśnienie 1013 hPa
Mało chmury na wysokości 4900 ft

METAR: EHMA 191455Z AUTO VRB06KT //// // FEW049 19/15 Q1013 RE// W///H///

czas: 17:23 (15:23 UTC)


TAF: brakujący

Obserwacja i prognoza pogody dla ponad 4000 lotnisk (raport METAR i TAF).

Dostępne stacje oznaczono żółtymi i czerwonymi punktami na mapie.

Najedź kursorem aby zobaczyć nazwę stacji.

Kliknij aby zobaczyć obserwacje i prognozy pogody.

Aby zmienić mapę: kliknij na zielony przycisk z czarnym krzyżykiem, aby powiększyć; na zielony przycisk z myślnikiem, aby pomniejszyć; na zielone strzałki, aby przejść do map sąsiednich.


METAR-TAF: